Blawenburg, New Jersey
Current Conditions -  °F | °C
As of 10:53 PM on Thursday 18 Dec 2014 (Local Time) from KTTN Reporting Station
Overcast Overcast  
Wind Chill: 30°   Ceiling: 3900
Heat Index: 36°   Visibility: 10mi
Dew Point: 25°   Wind: 7mph
Humidity: 64%   Direction: 270°W
Pressure: 30.01"   Gusts: NA
Location:  40.41°N, 74.7°W
Report Text: KTTN 190353Z AUTO 27006KT 10SM OVC039 02/M04 A3001 RMK AO2 SLP158 T00221039
Loading
Personal Weather Stations






























Interactive Weather Map New forecast layout! Learn more

10-Day Weather Forecast

Advertisements
Track Severe Weather on mobile